sensor_id;sensor_type;location;lat;lon;timestamp;pressure;altitude;pressure_sealevel;temperature
7389;BMP180;3735;50.136;11.062;2022-08-16T00:00:36;97466.00;;;19.20
7389;BMP180;3735;50.136;11.062;2022-08-16T00:03:03;97466.00;;;19.20
7389;BMP180;3735;50.136;11.062;2022-08-16T00:05:30;97467.00;;;19.10
7389;BMP180;3735;50.136;11.062;2022-08-16T00:07:56;97479.00;;;19.00
7389;BMP180;3735;50.136;11.062;2022-08-16T00:10:28;97474.00;;;18.90
7389;BMP180;3735;50.136;11.062;2022-08-16T00:12:55;97479.00;;;19.10
7389;BMP180;3735;50.136;11.062;2022-08-16T00:15:28;97474.00;;;19.30
7389;BMP180;3735;50.136;11.062;2022-08-16T00:17:55;97479.00;;;19.40
7389;BMP180;3735;50.136;11.062;2022-08-16T00:20:21;97474.00;;;19.50
7389;BMP180;3735;50.136;11.062;2022-08-16T00:22:49;97481.00;;;19.50
7389;BMP180;3735;50.136;11.062;2022-08-16T00:25:18;97470.00;;;19.50
7389;BMP180;3735;50.136;11.062;2022-08-16T00:27:44;97482.00;;;19.50
7389;BMP180;3735;50.136;11.062;2022-08-16T00:30:13;97475.00;;;19.50
7389;BMP180;3735;50.136;11.062;2022-08-16T00:32:43;97487.00;;;19.40
7389;BMP180;3735;50.136;11.062;2022-08-16T00:35:14;97495.00;;;19.40
7389;BMP180;3735;50.136;11.062;2022-08-16T00:37:42;97490.00;;;19.30
7389;BMP180;3735;50.136;11.062;2022-08-16T00:40:09;97485.00;;;19.30
7389;BMP180;3735;50.136;11.062;2022-08-16T00:42:35;97483.00;;;19.30
7389;BMP180;3735;50.136;11.062;2022-08-16T00:48:11;97487.00;;;19.00
7389;BMP180;3735;50.136;11.062;2022-08-16T00:50:39;97483.00;;;18.80
7389;BMP180;3735;50.136;11.062;2022-08-16T00:53:10;97485.00;;;18.70
7389;BMP180;3735;50.136;11.062;2022-08-16T00:55:42;97481.00;;;18.60
7389;BMP180;3735;50.136;11.062;2022-08-16T00:58:10;97481.00;;;18.60
7389;BMP180;3735;50.136;11.062;2022-08-16T01:00:36;97489.00;;;18.80
7389;BMP180;3735;50.136;11.062;2022-08-16T01:03:08;97484.00;;;18.80
7389;BMP180;3735;50.136;11.062;2022-08-16T01:05:36;97481.00;;;18.70
7389;BMP180;3735;50.136;11.062;2022-08-16T01:08:03;97478.00;;;18.50
7389;BMP180;3735;50.136;11.062;2022-08-16T01:10:32;97486.00;;;18.40
7389;BMP180;3735;50.136;11.062;2022-08-16T01:13:09;97486.00;;;18.30
7389;BMP180;3735;50.136;11.062;2022-08-16T01:15:40;97481.00;;;18.30
7389;BMP180;3735;50.136;11.062;2022-08-16T01:18:11;97485.00;;;18.20
7389;BMP180;3735;50.136;11.062;2022-08-16T01:20:46;97485.00;;;18.20
7389;BMP180;3735;50.136;11.062;2022-08-16T01:23:35;97487.00;;;18.20
7389;BMP180;3735;50.136;11.062;2022-08-16T01:26:04;97495.00;;;18.20
7389;BMP180;3735;50.136;11.062;2022-08-16T01:28:30;97487.00;;;18.30
7389;BMP180;3735;50.136;11.062;2022-08-16T01:30:57;97496.00;;;18.20
7389;BMP180;3735;50.136;11.062;2022-08-16T01:33:24;97496.00;;;18.20
7389;BMP180;3735;50.136;11.062;2022-08-16T01:36:00;97489.00;;;18.30
7389;BMP180;3735;50.136;11.062;2022-08-16T01:38:31;97502.00;;;18.30
7389;BMP180;3735;50.136;11.062;2022-08-16T01:41:03;97496.00;;;18.30
7389;BMP180;3735;50.136;11.062;2022-08-16T01:43:31;97502.00;;;18.30
7389;BMP180;3735;50.136;11.062;2022-08-16T01:46:05;97495.00;;;18.30
7389;BMP180;3735;50.136;11.062;2022-08-16T01:48:32;97491.00;;;18.30
7389;BMP180;3735;50.136;11.062;2022-08-16T01:51:01;97494.00;;;18.20
7389;BMP180;3735;50.136;11.062;2022-08-16T01:53:28;97489.00;;;18.10
7389;BMP180;3735;50.136;11.062;2022-08-16T01:55:54;97488.00;;;18.00
7389;BMP180;3735;50.136;11.062;2022-08-16T01:58:22;97497.00;;;17.90
7389;BMP180;3735;50.136;11.062;2022-08-16T02:00:49;97492.00;;;17.80
7389;BMP180;3735;50.136;11.062;2022-08-16T02:03:15;97492.00;;;17.70
7389;BMP180;3735;50.136;11.062;2022-08-16T02:05:41;97493.00;;;17.60
7389;BMP180;3735;50.136;11.062;2022-08-16T02:08:08;97481.00;;;17.40
7389;BMP180;3735;50.136;11.062;2022-08-16T02:10:35;97482.00;;;17.40
7389;BMP180;3735;50.136;11.062;2022-08-16T02:13:05;97486.00;;;17.40
7389;BMP180;3735;50.136;11.062;2022-08-16T02:15:34;97485.00;;;17.30
7389;BMP180;3735;50.136;11.062;2022-08-16T02:18:01;97487.00;;;17.20
7389;BMP180;3735;50.136;11.062;2022-08-16T02:20:31;97490.00;;;17.20
7389;BMP180;3735;50.136;11.062;2022-08-16T02:22:59;97483.00;;;17.10
7389;BMP180;3735;50.136;11.062;2022-08-16T02:25:27;97493.00;;;17.00
7389;BMP180;3735;50.136;11.062;2022-08-16T02:27:53;97485.00;;;17.00
7389;BMP180;3735;50.136;11.062;2022-08-16T02:30:28;97478.00;;;17.00
7389;BMP180;3735;50.136;11.062;2022-08-16T02:32:55;97482.00;;;17.00
7389;BMP180;3735;50.136;11.062;2022-08-16T02:35:24;97481.00;;;16.90
7389;BMP180;3735;50.136;11.062;2022-08-16T02:37:52;97489.00;;;16.90
7389;BMP180;3735;50.136;11.062;2022-08-16T02:40:20;97487.00;;;16.80
7389;BMP180;3735;50.136;11.062;2022-08-16T02:42:48;97497.00;;;16.80
7389;BMP180;3735;50.136;11.062;2022-08-16T02:45:15;97502.00;;;16.70
7389;BMP180;3735;50.136;11.062;2022-08-16T02:47:41;97501.00;;;16.70
7389;BMP180;3735;50.136;11.062;2022-08-16T02:50:08;97502.00;;;16.60
7389;BMP180;3735;50.136;11.062;2022-08-16T02:52:34;97509.00;;;16.50
7389;BMP180;3735;50.136;11.062;2022-08-16T02:55:01;97503.00;;;16.40
7389;BMP180;3735;50.136;11.062;2022-08-16T02:57:27;97505.00;;;16.30
7389;BMP180;3735;50.136;11.062;2022-08-16T02:59:52;97513.00;;;16.30
7389;BMP180;3735;50.136;11.062;2022-08-16T03:02:18;97500.00;;;16.20
7389;BMP180;3735;50.136;11.062;2022-08-16T03:04:44;97503.00;;;16.10
7389;BMP180;3735;50.136;11.062;2022-08-16T03:07:11;97503.00;;;16.10
7389;BMP180;3735;50.136;11.062;2022-08-16T03:09:39;97501.00;;;16.10
7389;BMP180;3735;50.136;11.062;2022-08-16T03:12:06;97499.00;;;16.10
7389;BMP180;3735;50.136;11.062;2022-08-16T03:14:32;97493.00;;;16.10
7389;BMP180;3735;50.136;11.062;2022-08-16T03:16:59;97505.00;;;16.10
7389;BMP180;3735;50.136;11.062;2022-08-16T03:19:27;97497.00;;;16.20
7389;BMP180;3735;50.136;11.062;2022-08-16T03:21:52;97505.00;;;16.20
7389;BMP180;3735;50.136;11.062;2022-08-16T03:24:18;97518.00;;;16.20
7389;BMP180;3735;50.136;11.062;2022-08-16T03:26:44;97511.00;;;16.30
7389;BMP180;3735;50.136;11.062;2022-08-16T03:29:10;97515.00;;;16.30
7389;BMP180;3735;50.136;11.062;2022-08-16T03:31:37;97517.00;;;16.30
7389;BMP180;3735;50.136;11.062;2022-08-16T03:34:02;97513.00;;;16.30
7389;BMP180;3735;50.136;11.062;2022-08-16T03:36:28;97521.00;;;16.40
7389;BMP180;3735;50.136;11.062;2022-08-16T03:38:54;97515.00;;;16.50
7389;BMP180;3735;50.136;11.062;2022-08-16T03:41:20;97519.00;;;16.50
7389;BMP180;3735;50.136;11.062;2022-08-16T03:43:48;97530.00;;;16.50
7389;BMP180;3735;50.136;11.062;2022-08-16T03:46:14;97518.00;;;16.50
7389;BMP180;3735;50.136;11.062;2022-08-16T03:48:40;97516.00;;;16.60
7389;BMP180;3735;50.136;11.062;2022-08-16T03:51:11;97513.00;;;16.60
7389;BMP180;3735;50.136;11.062;2022-08-16T03:53:37;97513.00;;;16.50
7389;BMP180;3735;50.136;11.062;2022-08-16T03:56:04;97521.00;;;16.40
7389;BMP180;3735;50.136;11.062;2022-08-16T03:58:32;97527.00;;;16.30
7389;BMP180;3735;50.136;11.062;2022-08-16T04:00:58;97527.00;;;16.30
7389;BMP180;3735;50.136;11.062;2022-08-16T04:03:24;97530.00;;;16.20
7389;BMP180;3735;50.136;11.062;2022-08-16T04:05:50;97531.00;;;16.20
7389;BMP180;3735;50.136;11.062;2022-08-16T04:08:18;97531.00;;;16.10
7389;BMP180;3735;50.136;11.062;2022-08-16T04:10:47;97535.00;;;16.10
7389;BMP180;3735;50.136;11.062;2022-08-16T04:13:13;97535.00;;;16.20
7389;BMP180;3735;50.136;11.062;2022-08-16T04:15:39;97535.00;;;16.20
7389;BMP180;3735;50.136;11.062;2022-08-16T04:18:06;97534.00;;;16.10
7389;BMP180;3735;50.136;11.062;2022-08-16T04:20:32;97537.00;;;16.10
7389;BMP180;3735;50.136;11.062;2022-08-16T04:22:59;97543.00;;;16.10
7389;BMP180;3735;50.136;11.062;2022-08-16T04:25:27;97545.00;;;16.10
7389;BMP180;3735;50.136;11.062;2022-08-16T04:27:53;97547.00;;;16.00
7389;BMP180;3735;50.136;11.062;2022-08-16T04:30:21;97537.00;;;16.00
7389;BMP180;3735;50.136;11.062;2022-08-16T04:32:47;97537.00;;;16.10
7389;BMP180;3735;50.136;11.062;2022-08-16T04:35:17;97546.00;;;16.10
7389;BMP180;3735;50.136;11.062;2022-08-16T04:37:45;97551.00;;;16.10
7389;BMP180;3735;50.136;11.062;2022-08-16T04:40:13;97553.00;;;16.10
7389;BMP180;3735;50.136;11.062;2022-08-16T04:42:40;97550.00;;;16.20
7389;BMP180;3735;50.136;11.062;2022-08-16T04:45:12;97559.00;;;16.30
7389;BMP180;3735;50.136;11.062;2022-08-16T04:47:40;97564.00;;;16.40
7389;BMP180;3735;50.136;11.062;2022-08-16T04:50:21;97560.00;;;16.40
7389;BMP180;3735;50.136;11.062;2022-08-16T04:52:50;97557.00;;;16.40
7389;BMP180;3735;50.136;11.062;2022-08-16T04:55:20;97568.00;;;16.40
7389;BMP180;3735;50.136;11.062;2022-08-16T04:57:49;97568.00;;;16.40
7389;BMP180;3735;50.136;11.062;2022-08-16T05:00:22;97561.00;;;16.70
7389;BMP180;3735;50.136;11.062;2022-08-16T05:02:53;97549.00;;;17.10
7389;BMP180;3735;50.136;11.062;2022-08-16T05:05:20;97554.00;;;17.00
7389;BMP180;3735;50.136;11.062;2022-08-16T05:07:47;97564.00;;;17.00
7389;BMP180;3735;50.136;11.062;2022-08-16T05:10:15;97563.00;;;17.00
7389;BMP180;3735;50.136;11.062;2022-08-16T05:12:41;97567.00;;;17.20
7389;BMP180;3735;50.136;11.062;2022-08-16T05:15:09;97567.00;;;17.80
7389;BMP180;3735;50.136;11.062;2022-08-16T05:17:35;97571.00;;;18.90
7389;BMP180;3735;50.136;11.062;2022-08-16T05:20:03;97572.00;;;20.00
7389;BMP180;3735;50.136;11.062;2022-08-16T05:22:29;97557.00;;;20.80
7389;BMP180;3735;50.136;11.062;2022-08-16T05:24:55;97560.00;;;21.80
7389;BMP180;3735;50.136;11.062;2022-08-16T05:27:21;97555.00;;;22.50
7389;BMP180;3735;50.136;11.062;2022-08-16T05:29:46;97557.00;;;23.30
7389;BMP180;3735;50.136;11.062;2022-08-16T05:32:12;97560.00;;;23.90
7389;BMP180;3735;50.136;11.062;2022-08-16T05:34:38;97561.00;;;24.70
7389;BMP180;3735;50.136;11.062;2022-08-16T05:37:04;97560.00;;;25.00
7389;BMP180;3735;50.136;11.062;2022-08-16T05:39:30;97558.00;;;25.60
7389;BMP180;3735;50.136;11.062;2022-08-16T05:41:55;97569.00;;;26.60
7389;BMP180;3735;50.136;11.062;2022-08-16T05:44:23;97568.00;;;26.90
7389;BMP180;3735;50.136;11.062;2022-08-16T05:46:58;97550.00;;;27.20
7389;BMP180;3735;50.136;11.062;2022-08-16T05:49:27;97563.00;;;27.30
7389;BMP180;3735;50.136;11.062;2022-08-16T05:51:53;97569.00;;;26.30
7389;BMP180;3735;50.136;11.062;2022-08-16T05:54:21;97572.00;;;27.00
7389;BMP180;3735;50.136;11.062;2022-08-16T05:56:48;97575.00;;;26.30
7389;BMP180;3735;50.136;11.062;2022-08-16T05:59:16;97579.00;;;25.40
7389;BMP180;3735;50.136;11.062;2022-08-16T06:01:43;97579.00;;;24.30
7389;BMP180;3735;50.136;11.062;2022-08-16T06:04:12;97593.00;;;23.50
7389;BMP180;3735;50.136;11.062;2022-08-16T06:06:40;97594.00;;;22.70
7389;BMP180;3735;50.136;11.062;2022-08-16T06:09:06;97587.00;;;22.70
7389;BMP180;3735;50.136;11.062;2022-08-16T06:11:32;97587.00;;;24.00
7389;BMP180;3735;50.136;11.062;2022-08-16T06:13:58;97590.00;;;25.70
7389;BMP180;3735;50.136;11.062;2022-08-16T06:16:24;97592.00;;;26.80
7389;BMP180;3735;50.136;11.062;2022-08-16T06:18:49;97591.00;;;27.50
7389;BMP180;3735;50.136;11.062;2022-08-16T06:21:15;97586.00;;;28.00
7389;BMP180;3735;50.136;11.062;2022-08-16T06:23:41;97587.00;;;28.40
7389;BMP180;3735;50.136;11.062;2022-08-16T06:26:07;97606.00;;;29.00
7389;BMP180;3735;50.136;11.062;2022-08-16T06:28:33;97595.00;;;29.70
7389;BMP180;3735;50.136;11.062;2022-08-16T06:31:01;97591.00;;;30.00
7389;BMP180;3735;50.136;11.062;2022-08-16T06:33:27;97596.00;;;30.50
7389;BMP180;3735;50.136;11.062;2022-08-16T06:35:54;97607.00;;;30.30
7389;BMP180;3735;50.136;11.062;2022-08-16T06:38:21;97608.00;;;30.60
7389;BMP180;3735;50.136;11.062;2022-08-16T06:40:48;97604.00;;;31.20
7389;BMP180;3735;50.136;11.062;2022-08-16T06:43:14;97605.00;;;31.90
7389;BMP180;3735;50.136;11.062;2022-08-16T06:45:40;97610.00;;;32.60
7389;BMP180;3735;50.136;11.062;2022-08-16T06:48:09;97614.00;;;32.70
7389;BMP180;3735;50.136;11.062;2022-08-16T06:50:35;97609.00;;;31.40
7389;BMP180;3735;50.136;11.062;2022-08-16T06:53:02;97611.00;;;29.90
7389;BMP180;3735;50.136;11.062;2022-08-16T06:55:28;97607.00;;;29.00
7389;BMP180;3735;50.136;11.062;2022-08-16T06:57:55;97614.00;;;29.00
7389;BMP180;3735;50.136;11.062;2022-08-16T07:00:23;97615.00;;;29.60
7389;BMP180;3735;50.136;11.062;2022-08-16T07:02:49;97621.00;;;30.70
7389;BMP180;3735;50.136;11.062;2022-08-16T07:05:16;97623.00;;;30.90
7389;BMP180;3735;50.136;11.062;2022-08-16T07:07:47;97625.00;;;31.70
7389;BMP180;3735;50.136;11.062;2022-08-16T07:10:15;97629.00;;;32.50
7389;BMP180;3735;50.136;11.062;2022-08-16T07:12:42;97611.00;;;33.10
7389;BMP180;3735;50.136;11.062;2022-08-16T07:15:08;97615.00;;;33.40
7389;BMP180;3735;50.136;11.062;2022-08-16T07:17:36;97617.00;;;33.60
7389;BMP180;3735;50.136;11.062;2022-08-16T07:20:05;97623.00;;;34.40
7389;BMP180;3735;50.136;11.062;2022-08-16T07:22:32;97619.00;;;33.90
7389;BMP180;3735;50.136;11.062;2022-08-16T07:24:59;97607.00;;;33.10
7389;BMP180;3735;50.136;11.062;2022-08-16T07:27:25;97618.00;;;34.10
7389;BMP180;3735;50.136;11.062;2022-08-16T07:29:51;97619.00;;;34.90
7389;BMP180;3735;50.136;11.062;2022-08-16T07:32:17;97627.00;;;35.20
7389;BMP180;3735;50.136;11.062;2022-08-16T07:34:45;97627.00;;;33.60
7389;BMP180;3735;50.136;11.062;2022-08-16T07:37:11;97622.00;;;34.90
7389;BMP180;3735;50.136;11.062;2022-08-16T07:39:37;97627.00;;;34.80
7389;BMP180;3735;50.136;11.062;2022-08-16T07:42:05;97622.00;;;33.80
7389;BMP180;3735;50.136;11.062;2022-08-16T07:44:31;97619.00;;;35.10
7389;BMP180;3735;50.136;11.062;2022-08-16T07:46:56;97626.00;;;35.20
7389;BMP180;3735;50.136;11.062;2022-08-16T07:49:23;97620.00;;;35.80
7389;BMP180;3735;50.136;11.062;2022-08-16T07:51:49;97620.00;;;36.00
7389;BMP180;3735;50.136;11.062;2022-08-16T07:54:16;97626.00;;;36.60
7389;BMP180;3735;50.136;11.062;2022-08-16T07:56:41;97628.00;;;36.30
7389;BMP180;3735;50.136;11.062;2022-08-16T07:59:07;97629.00;;;36.60
7389;BMP180;3735;50.136;11.062;2022-08-16T08:01:34;97631.00;;;36.80
7389;BMP180;3735;50.136;11.062;2022-08-16T08:04:01;97635.00;;;36.60
7389;BMP180;3735;50.136;11.062;2022-08-16T08:06:31;97633.00;;;36.20
7389;BMP180;3735;50.136;11.062;2022-08-16T08:08:58;97628.00;;;36.80
7389;BMP180;3735;50.136;11.062;2022-08-16T08:11:26;97644.00;;;35.90
7389;BMP180;3735;50.136;11.062;2022-08-16T08:13:53;97638.00;;;35.30
7389;BMP180;3735;50.136;11.062;2022-08-16T08:16:20;97646.00;;;34.30
7389;BMP180;3735;50.136;11.062;2022-08-16T08:18:48;97649.00;;;35.50
7389;BMP180;3735;50.136;11.062;2022-08-16T08:21:15;97653.00;;;35.60
7389;BMP180;3735;50.136;11.062;2022-08-16T08:23:44;97654.00;;;35.70
7389;BMP180;3735;50.136;11.062;2022-08-16T08:26:11;97656.00;;;35.70
7389;BMP180;3735;50.136;11.062;2022-08-16T08:28:37;97654.00;;;32.80
7389;BMP180;3735;50.136;11.062;2022-08-16T08:31:04;97664.00;;;31.40
7389;BMP180;3735;50.136;11.062;2022-08-16T08:33:31;97659.00;;;29.80
7389;BMP180;3735;50.136;11.062;2022-08-16T08:35:59;97662.00;;;28.40
7389;BMP180;3735;50.136;11.062;2022-08-16T08:38:26;97662.00;;;28.00
7389;BMP180;3735;50.136;11.062;2022-08-16T08:40:54;97661.00;;;27.60
7389;BMP180;3735;50.136;11.062;2022-08-16T08:43:20;97661.00;;;27.90
7389;BMP180;3735;50.136;11.062;2022-08-16T08:45:47;97665.00;;;28.70
7389;BMP180;3735;50.136;11.062;2022-08-16T08:48:15;97658.00;;;27.80
7389;BMP180;3735;50.136;11.062;2022-08-16T08:50:41;97660.00;;;29.80
7389;BMP180;3735;50.136;11.062;2022-08-16T08:53:07;97645.00;;;31.50
7389;BMP180;3735;50.136;11.062;2022-08-16T08:55:33;97662.00;;;32.20
7389;BMP180;3735;50.136;11.062;2022-08-16T08:57:59;97661.00;;;30.10
7389;BMP180;3735;50.136;11.062;2022-08-16T09:00:26;97662.00;;;30.70
7389;BMP180;3735;50.136;11.062;2022-08-16T09:02:55;97669.00;;;31.40
7389;BMP180;3735;50.136;11.062;2022-08-16T09:05:22;97662.00;;;32.30
7389;BMP180;3735;50.136;11.062;2022-08-16T09:07:51;97660.00;;;31.70
7389;BMP180;3735;50.136;11.062;2022-08-16T09:10:17;97672.00;;;31.90
7389;BMP180;3735;50.136;11.062;2022-08-16T09:12:45;97674.00;;;30.40
7389;BMP180;3735;50.136;11.062;2022-08-16T09:15:15;97674.00;;;29.30
7389;BMP180;3735;50.136;11.062;2022-08-16T09:17:42;97674.00;;;28.80
7389;BMP180;3735;50.136;11.062;2022-08-16T09:20:10;97665.00;;;28.50
7389;BMP180;3735;50.136;11.062;2022-08-16T09:22:40;97669.00;;;30.20
7389;BMP180;3735;50.136;11.062;2022-08-16T09:25:08;97674.00;;;31.00
7389;BMP180;3735;50.136;11.062;2022-08-16T09:27:34;97672.00;;;31.20
7389;BMP180;3735;50.136;11.062;2022-08-16T09:30:00;97671.00;;;29.80
7389;BMP180;3735;50.136;11.062;2022-08-16T09:32:28;97666.00;;;29.20
7389;BMP180;3735;50.136;11.062;2022-08-16T09:34:55;97655.00;;;29.00
7389;BMP180;3735;50.136;11.062;2022-08-16T09:37:21;97672.00;;;28.50
7389;BMP180;3735;50.136;11.062;2022-08-16T09:39:46;97674.00;;;28.10
7389;BMP180;3735;50.136;11.062;2022-08-16T09:42:12;97660.00;;;27.70
7389;BMP180;3735;50.136;11.062;2022-08-16T09:44:40;97656.00;;;28.00
7389;BMP180;3735;50.136;11.062;2022-08-16T09:47:07;97657.00;;;29.90
7389;BMP180;3735;50.136;11.062;2022-08-16T09:49:34;97643.00;;;30.80
7389;BMP180;3735;50.136;11.062;2022-08-16T09:52:00;97646.00;;;31.70
7389;BMP180;3735;50.136;11.062;2022-08-16T09:54:27;97644.00;;;31.90
7389;BMP180;3735;50.136;11.062;2022-08-16T09:56:53;97647.00;;;32.90
7389;BMP180;3735;50.136;11.062;2022-08-16T09:59:21;97642.00;;;34.10
7389;BMP180;3735;50.136;11.062;2022-08-16T10:01:48;97638.00;;;34.10
7389;BMP180;3735;50.136;11.062;2022-08-16T10:04:14;97643.00;;;34.40
7389;BMP180;3735;50.136;11.062;2022-08-16T10:06:41;97635.00;;;34.90
7389;BMP180;3735;50.136;11.062;2022-08-16T10:09:08;97638.00;;;34.80
7389;BMP180;3735;50.136;11.062;2022-08-16T10:11:35;97647.00;;;33.40
7389;BMP180;3735;50.136;11.062;2022-08-16T10:14:22;97645.00;;;33.70
7389;BMP180;3735;50.136;11.062;2022-08-16T10:16:49;97640.00;;;34.60
7389;BMP180;3735;50.136;11.062;2022-08-16T10:19:16;97643.00;;;35.30
7389;BMP180;3735;50.136;11.062;2022-08-16T10:21:42;97649.00;;;34.70
7389;BMP180;3735;50.136;11.062;2022-08-16T10:24:08;97649.00;;;33.70
7389;BMP180;3735;50.136;11.062;2022-08-16T10:26:36;97658.00;;;33.60
7389;BMP180;3735;50.136;11.062;2022-08-16T10:29:04;97658.00;;;33.30
7389;BMP180;3735;50.136;11.062;2022-08-16T10:31:31;97645.00;;;33.60
7389;BMP180;3735;50.136;11.062;2022-08-16T10:33:57;97649.00;;;34.80
7389;BMP180;3735;50.136;11.062;2022-08-16T10:36:23;97646.00;;;34.90
7389;BMP180;3735;50.136;11.062;2022-08-16T10:38:49;97654.00;;;33.20
7389;BMP180;3735;50.136;11.062;2022-08-16T10:41:15;97649.00;;;33.60
7389;BMP180;3735;50.136;11.062;2022-08-16T10:43:41;97648.00;;;33.20
7389;BMP180;3735;50.136;11.062;2022-08-16T10:46:11;97645.00;;;33.20
7389;BMP180;3735;50.136;11.062;2022-08-16T10:48:40;97631.00;;;33.60
7389;BMP180;3735;50.136;11.062;2022-08-16T10:51:07;97638.00;;;34.90
7389;BMP180;3735;50.136;11.062;2022-08-16T10:53:33;97641.00;;;35.50
7389;BMP180;3735;50.136;11.062;2022-08-16T10:56:07;97648.00;;;34.30
7389;BMP180;3735;50.136;11.062;2022-08-16T10:58:35;97653.00;;;35.40
7389;BMP180;3735;50.136;11.062;2022-08-16T11:01:05;97656.00;;;35.90
7389;BMP180;3735;50.136;11.062;2022-08-16T11:03:34;97647.00;;;35.80
7389;BMP180;3735;50.136;11.062;2022-08-16T11:06:02;97642.00;;;34.70
7389;BMP180;3735;50.136;11.062;2022-08-16T11:08:29;97643.00;;;34.80
7389;BMP180;3735;50.136;11.062;2022-08-16T11:10:55;97640.00;;;34.80
7389;BMP180;3735;50.136;11.062;2022-08-16T11:13:25;97648.00;;;32.70
7389;BMP180;3735;50.136;11.062;2022-08-16T11:15:52;97645.00;;;31.30
7389;BMP180;3735;50.136;11.062;2022-08-16T11:18:19;97652.00;;;31.30
7389;BMP180;3735;50.136;11.062;2022-08-16T11:20:45;97649.00;;;32.70
7389;BMP180;3735;50.136;11.062;2022-08-16T11:23:13;97647.00;;;32.90
7389;BMP180;3735;50.136;11.062;2022-08-16T11:25:39;97649.00;;;32.80
7389;BMP180;3735;50.136;11.062;2022-08-16T11:28:07;97643.00;;;32.10
7389;BMP180;3735;50.136;11.062;2022-08-16T11:30:34;97645.00;;;31.30
7389;BMP180;3735;50.136;11.062;2022-08-16T11:33:00;97634.00;;;32.40
7389;BMP180;3735;50.136;11.062;2022-08-16T11:35:31;97650.00;;;32.30
7389;BMP180;3735;50.136;11.062;2022-08-16T11:38:04;97639.00;;;32.30
7389;BMP180;3735;50.136;11.062;2022-08-16T11:40:47;97626.00;;;33.00
7389;BMP180;3735;50.136;11.062;2022-08-16T11:43:18;97643.00;;;33.40
7389;BMP180;3735;50.136;11.062;2022-08-16T11:45:47;97644.00;;;33.20
7389;BMP180;3735;50.136;11.062;2022-08-16T11:48:14;97640.00;;;33.20
7389;BMP180;3735;50.136;11.062;2022-08-16T11:50:42;97636.00;;;33.50
7389;BMP180;3735;50.136;11.062;2022-08-16T11:53:10;97637.00;;;32.30
7389;BMP180;3735;50.136;11.062;2022-08-16T11:55:37;97639.00;;;30.90
7389;BMP180;3735;50.136;11.062;2022-08-16T11:58:06;97650.00;;;32.00
7389;BMP180;3735;50.136;11.062;2022-08-16T12:00:32;97640.00;;;32.30
7389;BMP180;3735;50.136;11.062;2022-08-16T12:02:59;97639.00;;;32.70
7389;BMP180;3735;50.136;11.062;2022-08-16T12:05:26;97637.00;;;31.50
7389;BMP180;3735;50.136;11.062;2022-08-16T12:07:53;97643.00;;;30.90
7389;BMP180;3735;50.136;11.062;2022-08-16T12:10:27;97643.00;;;30.20
7389;BMP180;3735;50.136;11.062;2022-08-16T12:12:53;97646.00;;;29.80
7389;BMP180;3735;50.136;11.062;2022-08-16T12:15:20;97651.00;;;28.90
7389;BMP180;3735;50.136;11.062;2022-08-16T12:17:47;97650.00;;;28.30
7389;BMP180;3735;50.136;11.062;2022-08-16T12:20:21;97654.00;;;28.60
7389;BMP180;3735;50.136;11.062;2022-08-16T12:22:48;97648.00;;;28.30
7389;BMP180;3735;50.136;11.062;2022-08-16T12:25:18;97650.00;;;28.00
7389;BMP180;3735;50.136;11.062;2022-08-16T12:27:46;97649.00;;;27.90
7389;BMP180;3735;50.136;11.062;2022-08-16T12:30:19;97654.00;;;27.80
7389;BMP180;3735;50.136;11.062;2022-08-16T12:32:45;97647.00;;;27.50
7389;BMP180;3735;50.136;11.062;2022-08-16T12:35:17;97665.00;;;27.20
7389;BMP180;3735;50.136;11.062;2022-08-16T12:37:46;97656.00;;;27.30
7389;BMP180;3735;50.136;11.062;2022-08-16T12:40:20;97653.00;;;27.30
7389;BMP180;3735;50.136;11.062;2022-08-16T12:42:52;97661.00;;;27.50
7389;BMP180;3735;50.136;11.062;2022-08-16T12:45:21;97655.00;;;27.70
7389;BMP180;3735;50.136;11.062;2022-08-16T12:47:48;97649.00;;;28.00
7389;BMP180;3735;50.136;11.062;2022-08-16T12:50:33;97654.00;;;28.10
7389;BMP180;3735;50.136;11.062;2022-08-16T12:52:59;97650.00;;;28.70
7389;BMP180;3735;50.136;11.062;2022-08-16T12:55:25;97647.00;;;29.60
7389;BMP180;3735;50.136;11.062;2022-08-16T12:57:56;97642.00;;;31.10
7389;BMP180;3735;50.136;11.062;2022-08-16T13:00:26;97645.00;;;32.20
7389;BMP180;3735;50.136;11.062;2022-08-16T13:02:59;97626.00;;;33.50
7389;BMP180;3735;50.136;11.062;2022-08-16T13:05:26;97636.00;;;34.90
7389;BMP180;3735;50.136;11.062;2022-08-16T13:07:53;97634.00;;;34.80
7389;BMP180;3735;50.136;11.062;2022-08-16T13:10:22;97629.00;;;34.90
7389;BMP180;3735;50.136;11.062;2022-08-16T13:12:51;97630.00;;;35.20
7389;BMP180;3735;50.136;11.062;2022-08-16T13:15:22;97630.00;;;35.90
7389;BMP180;3735;50.136;11.062;2022-08-16T13:17:49;97633.00;;;36.10
7389;BMP180;3735;50.136;11.062;2022-08-16T13:20:19;97639.00;;;36.20
7389;BMP180;3735;50.136;11.062;2022-08-16T13:23:07;97632.00;;;34.70
7389;BMP180;3735;50.136;11.062;2022-08-16T13:25:37;97633.00;;;35.20
7389;BMP180;3735;50.136;11.062;2022-08-16T13:28:04;97629.00;;;35.50
7389;BMP180;3735;50.136;11.062;2022-08-16T13:30:52;97633.00;;;35.90
7389;BMP180;3735;50.136;11.062;2022-08-16T13:33:23;97632.00;;;35.30
7389;BMP180;3735;50.136;11.062;2022-08-16T13:35:52;97627.00;;;34.40
7389;BMP180;3735;50.136;11.062;2022-08-16T13:38:19;97630.00;;;34.50
7389;BMP180;3735;50.136;11.062;2022-08-16T13:40:46;97634.00;;;34.40
7389;BMP180;3735;50.136;11.062;2022-08-16T13:43:12;97628.00;;;34.80
7389;BMP180;3735;50.136;11.062;2022-08-16T13:45:38;97629.00;;;34.10
7389;BMP180;3735;50.136;11.062;2022-08-16T13:48:04;97637.00;;;32.30
7389;BMP180;3735;50.136;11.062;2022-08-16T13:50:33;97634.00;;;32.50
7389;BMP180;3735;50.136;11.062;2022-08-16T13:52:59;97628.00;;;31.90
7389;BMP180;3735;50.136;11.062;2022-08-16T13:55:26;97630.00;;;30.60
7389;BMP180;3735;50.136;11.062;2022-08-16T13:57:52;97633.00;;;30.50
7389;BMP180;3735;50.136;11.062;2022-08-16T14:00:19;97633.00;;;30.80
7389;BMP180;3735;50.136;11.062;2022-08-16T14:02:46;97637.00;;;31.00
7389;BMP180;3735;50.136;11.062;2022-08-16T14:05:13;97637.00;;;30.40
7389;BMP180;3735;50.136;11.062;2022-08-16T14:07:39;97638.00;;;30.40
7389;BMP180;3735;50.136;11.062;2022-08-16T14:10:09;97640.00;;;30.60
7389;BMP180;3735;50.136;11.062;2022-08-16T14:12:36;97636.00;;;30.40
7389;BMP180;3735;50.136;11.062;2022-08-16T14:15:05;97631.00;;;30.60
7389;BMP180;3735;50.136;11.062;2022-08-16T14:17:31;97632.00;;;30.50
7389;BMP180;3735;50.136;11.062;2022-08-16T14:19:58;97628.00;;;30.50
7389;BMP180;3735;50.136;11.062;2022-08-16T14:22:31;97634.00;;;30.70
7389;BMP180;3735;50.136;11.062;2022-08-16T14:24:59;97629.00;;;30.80
7389;BMP180;3735;50.136;11.062;2022-08-16T14:27:29;97631.00;;;32.10